createdAt,value
2022-08-11T00:02:30.769Z,293.47
2022-08-11T00:04:59.416Z,283.00
2022-08-11T00:07:43.680Z,284.83
2022-08-11T00:10:13.509Z,289.50
2022-08-11T00:12:43.639Z,284.07
2022-08-11T00:15:13.127Z,279.87
2022-08-11T00:17:41.988Z,287.70
2022-08-11T00:20:16.501Z,282.00
2022-08-11T00:22:48.481Z,274.60
2022-08-11T00:25:18.976Z,286.33
2022-08-11T00:27:48.952Z,278.73
2022-08-11T00:30:17.820Z,279.17
2022-08-11T00:32:48.008Z,279.67
2022-08-11T00:35:56.047Z,274.73
2022-08-11T00:38:08.702Z,276.27
2022-08-11T00:40:41.379Z,277.27
2022-08-11T00:43:20.485Z,277.10
2022-08-11T00:46:07.860Z,277.37
2022-08-11T00:48:43.197Z,274.80
2022-08-11T00:51:16.836Z,274.30
2022-08-11T00:53:53.480Z,272.93
2022-08-11T00:57:05.015Z,273.10
2022-08-11T01:00:08.190Z,269.67
2022-08-11T01:03:06.783Z,268.07
2022-08-11T01:06:04.653Z,268.37
2022-08-11T01:09:22.337Z,268.97
2022-08-11T01:12:19.342Z,271.90
2022-08-11T01:15:40.237Z,262.40
2022-08-11T01:18:56.160Z,263.00
2022-08-11T01:22:08.266Z,264.57
2022-08-11T01:24:52.957Z,264.57
2022-08-11T01:27:44.780Z,268.20
2022-08-11T01:30:54.383Z,259.73
2022-08-11T01:34:13.852Z,260.00
2022-08-11T01:37:00.809Z,256.37
2022-08-11T01:40:18.877Z,266.13
2022-08-11T01:43:30.475Z,261.10
2022-08-11T01:46:01.615Z,258.50
2022-08-11T01:48:38.004Z,262.80
2022-08-11T01:51:30.249Z,265.00
2022-08-11T01:54:05.354Z,261.57
2022-08-11T01:56:58.804Z,262.83
2022-08-11T01:59:30.403Z,253.63
2022-08-11T02:02:45.908Z,252.53
2022-08-11T02:05:30.548Z,250.33
2022-08-11T02:08:06.744Z,252.03
2022-08-11T02:11:02.739Z,255.53
2022-08-11T02:13:44.714Z,249.03
2022-08-11T02:16:19.491Z,251.90
2022-08-11T02:19:09.695Z,255.20
2022-08-11T02:22:03.221Z,256.27
2022-08-11T02:24:36.613Z,256.07
2022-08-11T02:27:09.534Z,255.27
2022-08-11T02:29:47.220Z,253.30
2022-08-11T02:32:38.775Z,248.30
2022-08-11T02:35:15.744Z,247.87
2022-08-11T02:37:51.658Z,249.67
2022-08-11T02:40:25.933Z,250.83
2022-08-11T02:43:05.992Z,247.13
2022-08-11T02:45:41.812Z,249.27
2022-08-11T02:48:36.383Z,250.53
2022-08-11T02:51:14.899Z,246.47
2022-08-11T02:53:56.439Z,248.80
2022-08-11T02:56:36.539Z,242.60
2022-08-11T02:59:27.118Z,240.30
2022-08-11T03:02:00.734Z,240.83
2022-08-11T03:04:39.210Z,237.53
2022-08-11T03:07:28.989Z,245.87
2022-08-11T03:10:04.729Z,241.77
2022-08-11T03:12:59.671Z,242.63
2022-08-11T03:15:48.910Z,234.33
2022-08-11T03:18:26.841Z,241.97
2022-08-11T03:20:59.810Z,245.40
2022-08-11T03:23:31.379Z,242.40
2022-08-11T03:26:04.262Z,239.70
2022-08-11T03:28:36.045Z,232.23
2022-08-11T03:31:16.682Z,234.27
2022-08-11T03:34:07.253Z,239.63
2022-08-11T03:37:47.460Z,242.20
2022-08-11T03:40:40.439Z,238.53
2022-08-11T03:43:14.203Z,232.40
2022-08-11T03:45:57.307Z,235.27
2022-08-11T03:48:32.519Z,237.70
2022-08-11T03:51:09.347Z,237.70
2022-08-11T03:53:49.632Z,236.57
2022-08-11T03:56:40.612Z,233.37
2022-08-11T03:59:32.771Z,240.07
2022-08-11T04:02:25.524Z,238.63
2022-08-11T04:05:21.525Z,239.57
2022-08-11T04:08:21.741Z,235.70
2022-08-11T04:11:12.811Z,236.43
2022-08-11T04:14:19.931Z,240.27
2022-08-11T04:16:48.829Z,239.57
2022-08-11T04:19:39.849Z,247.63
2022-08-11T04:22:28.558Z,249.47
2022-08-11T04:25:30.840Z,261.73
2022-08-11T04:28:29.032Z,259.23
2022-08-11T04:31:10.071Z,259.50
2022-08-11T04:33:56.561Z,255.30
2022-08-11T04:37:04.540Z,263.07
2022-08-11T04:39:49.676Z,258.47
2022-08-11T04:43:07.168Z,262.73
2022-08-11T04:45:49.785Z,255.67
2022-08-11T04:48:54.904Z,255.17
2022-08-11T04:52:00.609Z,257.47
2022-08-11T04:54:59.913Z,253.63
2022-08-11T04:57:54.207Z,256.87
2022-08-11T05:00:43.638Z,260.23
2022-08-11T05:03:44.704Z,258.20
2022-08-11T05:06:50.429Z,262.37
2022-08-11T05:09:24.645Z,262.27
2022-08-11T05:12:20.157Z,271.90
2022-08-11T05:15:08.823Z,248.50
2022-08-11T05:17:57.238Z,246.83
2022-08-11T05:20:49.999Z,239.00
2022-08-11T05:23:37.589Z,242.23
2022-08-11T05:26:46.808Z,238.30
2022-08-11T05:29:57.525Z,236.30
2022-08-11T05:32:44.355Z,248.80
2022-08-11T05:35:59.793Z,246.40
2022-08-11T05:38:19.258Z,258.50
2022-08-11T05:41:07.771Z,253.60
2022-08-11T05:44:19.912Z,266.83
2022-08-11T05:47:01.213Z,254.33
2022-08-11T05:49:49.899Z,264.10
2022-08-11T05:52:40.662Z,259.77
2022-08-11T05:55:29.646Z,270.73
2022-08-11T05:57:58.976Z,264.10
2022-08-11T06:00:27.503Z,265.23
2022-08-11T06:03:00.885Z,262.37
2022-08-11T06:05:38.428Z,269.53
2022-08-11T06:08:13.763Z,260.90
2022-08-11T06:10:43.370Z,256.97
2022-08-11T06:13:12.581Z,254.17
2022-08-11T06:15:46.560Z,259.90
2022-08-11T06:18:16.845Z,249.23
2022-08-11T06:20:49.656Z,253.97
2022-08-11T06:23:19.471Z,266.67
2022-08-11T06:25:48.728Z,250.83
2022-08-11T06:28:20.740Z,256.67
2022-08-11T06:30:50.128Z,253.77
2022-08-11T06:33:22.823Z,259.43
2022-08-11T06:36:00.234Z,272.63
2022-08-11T06:38:54.277Z,270.60
2022-08-11T06:41:33.604Z,274.30
2022-08-11T06:44:10.284Z,275.33
2022-08-11T06:46:40.364Z,267.80
2022-08-11T06:49:31.202Z,268.43
2022-08-11T06:52:01.771Z,270.17
2022-08-11T06:54:33.790Z,282.00
2022-08-11T06:57:35.717Z,283.87
2022-08-11T07:00:23.801Z,282.00
2022-08-11T07:02:54.667Z,282.00
2022-08-11T07:05:28.124Z,288.83
2022-08-11T07:08:40.027Z,277.70
2022-08-11T07:11:39.488Z,285.10
2022-08-11T07:14:25.954Z,289.27
2022-08-11T07:16:54.733Z,283.77
2022-08-11T07:19:45.791Z,292.07
2022-08-11T07:22:29.770Z,306.93
2022-08-11T07:25:19.829Z,288.40
2022-08-11T07:28:07.182Z,285.47
2022-08-11T07:30:39.795Z,289.47
2022-08-11T07:33:08.528Z,286.80
2022-08-11T07:35:38.683Z,295.00
2022-08-11T07:38:12.591Z,297.50
2022-08-11T07:40:46.212Z,289.87
2022-08-11T07:43:14.843Z,301.27
2022-08-11T07:46:10.124Z,295.30
2022-08-11T07:48:55.549Z,292.20
2022-08-11T07:51:41.338Z,303.60
2022-08-11T07:54:16.937Z,297.03
2022-08-11T07:56:54.709Z,296.47
2022-08-11T08:00:03.893Z,296.97
2022-08-11T08:02:58.648Z,322.10
2022-08-11T08:05:44.546Z,314.93
2022-08-11T08:08:32.581Z,312.20
2022-08-11T08:11:23.975Z,322.67
2022-08-11T08:14:13.299Z,328.97
2022-08-11T08:16:59.285Z,341.33
2022-08-11T08:19:27.584Z,342.10
2022-08-11T08:22:38.404Z,359.17
2022-08-11T08:24:44.247Z,348.83
2022-08-11T08:27:14.797Z,353.17
2022-08-11T08:30:01.128Z,351.77
2022-08-11T08:32:29.938Z,356.57
2022-08-11T08:34:58.673Z,371.47
2022-08-11T08:37:45.323Z,363.20
2022-08-11T08:40:16.505Z,386.03
2022-08-11T08:42:51.821Z,392.90
2022-08-11T08:45:20.436Z,398.37
2022-08-11T08:47:53.779Z,393.53
2022-08-11T08:50:27.741Z,397.63
2022-08-11T08:53:00.840Z,402.90
2022-08-11T08:55:30.259Z,403.70
2022-08-11T08:58:01.200Z,413.67
2022-08-11T09:00:40.425Z,429.17
2022-08-11T09:03:36.452Z,406.27
2022-08-11T09:05:58.429Z,403.13
2022-08-11T09:08:27.547Z,429.67
2022-08-11T09:11:13.833Z,441.23
2022-08-11T09:13:44.725Z,431.97
2022-08-11T09:16:13.206Z,449.33
2022-08-11T09:18:44.571Z,421.10
2022-08-11T09:21:14.740Z,452.03
2022-08-11T09:24:26.016Z,444.23
2022-08-11T09:27:01.109Z,439.90
2022-08-11T09:29:31.252Z,416.60
2022-08-11T09:32:00.335Z,409.03
2022-08-11T09:34:28.729Z,456.17
2022-08-11T09:37:28.786Z,464.03
2022-08-11T09:40:30.864Z,444.23
2022-08-11T09:43:18.189Z,446.07
2022-08-11T09:45:51.409Z,455.27
2022-08-11T09:48:20.081Z,457.93
2022-08-11T09:50:49.899Z,452.17
2022-08-11T09:53:36.414Z,465.87
2022-08-11T09:56:22.927Z,422.13
2022-08-11T09:58:51.301Z,448.00
2022-08-11T10:01:28.109Z,476.67
2022-08-11T10:04:04.715Z,444.03
2022-08-11T10:06:53.951Z,447.60
2022-08-11T10:09:25.364Z,437.23
2022-08-11T10:11:58.243Z,446.53
2022-08-11T10:14:45.679Z,446.00
2022-08-11T10:17:16.318Z,442.53
2022-08-11T10:20:01.963Z,452.37
2022-08-11T10:22:53.459Z,464.47
2022-08-11T10:25:39.934Z,456.67
2022-08-11T10:28:30.648Z,459.20
2022-08-11T10:31:16.411Z,454.97
2022-08-11T10:34:03.722Z,454.10
2022-08-11T10:36:34.313Z,475.60
2022-08-11T10:39:04.184Z,467.43
2022-08-11T10:42:07.265Z,467.23
2022-08-11T10:44:39.549Z,458.33
2022-08-11T10:47:26.074Z,482.27
2022-08-11T10:50:10.459Z,472.07
2022-08-11T10:52:56.437Z,459.77
2022-08-11T10:55:42.565Z,467.57
2022-08-11T10:58:28.868Z,449.80
2022-08-11T11:00:58.906Z,452.70
2022-08-11T11:03:27.898Z,464.17
2022-08-11T11:06:27.422Z,471.40
2022-08-11T11:09:00.165Z,472.33
2022-08-11T11:11:53.159Z,482.47
2022-08-11T11:14:46.084Z,473.53
2022-08-11T11:17:39.802Z,466.70
2022-08-11T11:20:09.687Z,475.77
2022-08-11T11:23:05.209Z,467.07
2022-08-11T11:25:42.374Z,466.37
2022-08-11T11:28:21.272Z,485.07
2022-08-11T11:31:00.061Z,483.30
2022-08-11T11:34:06.734Z,464.90
2022-08-11T11:36:36.038Z,478.73
2022-08-11T11:39:05.741Z,466.53
2022-08-11T11:41:34.060Z,481.77
2022-08-11T11:44:02.586Z,480.30
2022-08-11T11:46:31.680Z,458.20
2022-08-11T11:49:10.720Z,468.27
2022-08-11T11:51:46.089Z,484.10
2022-08-11T11:54:21.255Z,472.97
2022-08-11T11:56:51.289Z,495.07
2022-08-11T11:59:36.788Z,495.57
2022-08-11T12:02:11.700Z,489.53
2022-08-11T12:04:43.094Z,489.83
2022-08-11T12:07:28.980Z,497.37
2022-08-11T12:09:59.072Z,516.47
2022-08-11T12:12:45.133Z,465.20
2022-08-11T12:15:13.450Z,487.63
2022-08-11T12:17:41.868Z,474.30
2022-08-11T12:20:32.155Z,487.27
2022-08-11T12:23:16.578Z,479.17
2022-08-11T12:26:25.815Z,484.30
2022-08-11T12:28:52.456Z,473.90
2022-08-11T12:31:22.967Z,482.03
2022-08-11T12:33:51.339Z,488.30
2022-08-11T12:36:20.564Z,488.07
2022-08-11T12:38:51.454Z,489.03
2022-08-11T12:41:40.063Z,471.03
2022-08-11T12:44:36.610Z,488.47
2022-08-11T12:47:05.571Z,485.70
2022-08-11T12:49:54.632Z,483.83
2022-08-11T12:52:25.470Z,489.53
2022-08-11T12:54:59.854Z,493.03
2022-08-11T12:57:50.982Z,494.00
2022-08-11T13:00:38.169Z,492.03
2022-08-11T13:03:26.203Z,483.83
2022-08-11T13:05:56.166Z,500.13
2022-08-11T13:08:25.940Z,510.43
2022-08-11T13:11:14.443Z,493.80
2022-08-11T13:13:52.346Z,480.50
2022-08-11T13:16:24.597Z,496.20
2022-08-11T13:18:53.651Z,484.87
2022-08-11T13:21:22.671Z,486.13
2022-08-11T13:23:59.526Z,479.23
2022-08-11T13:26:47.050Z,491.40
2022-08-11T13:29:22.170Z,485.17
2022-08-11T13:31:51.348Z,493.30
2022-08-11T13:34:20.815Z,488.33
2022-08-11T13:36:52.157Z,489.50
2022-08-11T13:39:24.274Z,483.97
2022-08-11T13:41:53.529Z,498.90
2022-08-11T13:44:26.072Z,489.90
2022-08-11T13:47:00.830Z,505.43
2022-08-11T13:49:29.272Z,493.23
2022-08-11T13:51:58.746Z,485.70
2022-08-11T13:54:30.021Z,473.37
2022-08-11T13:57:02.588Z,491.57
2022-08-11T13:59:32.334Z,488.73
2022-08-11T14:02:22.318Z,489.67
2022-08-11T14:05:00.228Z,486.93
2022-08-11T14:07:34.723Z,493.47
2022-08-11T14:10:05.474Z,480.07
2022-08-11T14:12:53.579Z,496.53
2022-08-11T14:15:25.266Z,481.80
2022-08-11T14:17:56.793Z,482.07
2022-08-11T14:20:45.417Z,483.63
2022-08-11T14:23:14.309Z,482.60
2022-08-11T14:26:03.816Z,485.00
2022-08-11T14:28:40.284Z,487.10
2022-08-11T14:31:19.734Z,493.13
2022-08-11T14:34:32.581Z,495.20
2022-08-11T14:37:03.458Z,488.23
2022-08-11T14:39:36.222Z,495.13
2022-08-11T14:42:24.229Z,483.53
2022-08-11T14:45:17.114Z,492.17
2022-08-11T14:47:49.756Z,485.37
2022-08-11T14:50:23.148Z,483.20
2022-08-11T14:52:52.353Z,495.80
2022-08-11T14:55:39.008Z,491.33
2022-08-11T14:58:10.458Z,480.57
2022-08-11T15:00:39.986Z,490.10
2022-08-11T15:03:11.835Z,484.47
2022-08-11T15:05:54.316Z,493.47
2022-08-11T15:08:48.908Z,493.30
2022-08-11T15:11:35.957Z,481.03
2022-08-11T15:14:06.365Z,480.30
2022-08-11T15:16:52.381Z,503.60
2022-08-11T15:19:22.541Z,485.47
2022-08-11T15:22:08.894Z,495.97
2022-08-11T15:24:38.079Z,481.20
2022-08-11T15:27:27.235Z,495.63
2022-08-11T15:30:26.855Z,484.73
2022-08-11T15:33:22.202Z,475.33
2022-08-11T15:36:09.893Z,484.07
2022-08-11T15:38:43.171Z,498.47
2022-08-11T15:41:32.760Z,495.40
2022-08-11T15:44:19.225Z,482.43
2022-08-11T15:46:50.397Z,497.47
2022-08-11T15:49:24.835Z,486.03
2022-08-11T15:52:18.679Z,491.07
2022-08-11T15:54:48.659Z,496.07
2022-08-11T15:57:31.199Z,499.97
2022-08-11T16:00:28.413Z,490.50
2022-08-11T16:03:16.381Z,492.73
2022-08-11T16:05:53.005Z,487.47
2022-08-11T16:08:27.946Z,498.87
2022-08-11T16:11:07.763Z,491.33
2022-08-11T16:13:57.277Z,490.27
2022-08-11T16:16:25.548Z,481.13
2022-08-11T16:18:56.688Z,486.60
2022-08-11T16:21:34.937Z,480.80
2022-08-11T16:26:30.482Z,496.77
2022-08-11T16:27:13.748Z,484.50
2022-08-11T16:29:45.661Z,488.37
2022-08-11T16:32:22.142Z,490.63
2022-08-11T16:35:14.454Z,491.67
2022-08-11T16:38:00.850Z,497.83
2022-08-11T16:40:32.279Z,490.97
2022-08-11T16:43:18.731Z,497.90
2022-08-11T16:46:05.274Z,489.97
2022-08-11T16:48:38.196Z,490.57
2022-08-11T16:51:07.798Z,489.67
2022-08-11T16:54:00.104Z,495.83
2022-08-11T16:56:30.672Z,484.47
2022-08-11T16:59:16.329Z,498.57
2022-08-11T17:01:48.760Z,485.00
2022-08-11T17:04:46.627Z,501.03
2022-08-11T17:07:41.721Z,472.10
2022-08-11T17:10:50.319Z,478.03
2022-08-11T17:13:27.478Z,474.40
2022-08-11T17:16:11.992Z,489.07
2022-08-11T17:18:51.746Z,483.10
2022-08-11T17:21:22.322Z,483.10
2022-08-11T17:23:52.928Z,480.23
2022-08-11T17:26:25.157Z,486.63
2022-08-11T17:28:59.236Z,493.60
2022-08-11T17:31:46.224Z,480.13
2022-08-11T17:34:32.626Z,479.17
2022-08-11T17:37:01.402Z,472.13
2022-08-11T17:39:32.267Z,481.20
2022-08-11T17:42:19.485Z,481.43
2022-08-11T17:45:07.770Z,464.07
2022-08-11T17:47:53.642Z,468.47
2022-08-11T17:50:22.419Z,471.20
2022-08-11T17:53:08.980Z,473.17
2022-08-11T17:55:55.925Z,471.70
2022-08-11T17:58:44.448Z,471.43
2022-08-11T18:01:14.504Z,464.33
2022-08-11T18:03:53.240Z,466.17
2022-08-11T18:06:34.322Z,464.17
2022-08-11T18:09:23.546Z,465.90
2022-08-11T18:12:12.776Z,462.17
2022-08-11T18:15:02.955Z,467.03
2022-08-11T18:17:50.672Z,452.83
2022-08-11T18:20:37.315Z,443.83
2022-08-11T18:23:46.258Z,444.40
2022-08-11T18:26:34.479Z,444.03
2022-08-11T18:29:21.025Z,443.47
2022-08-11T18:32:08.705Z,436.43
2022-08-11T18:34:59.401Z,434.73
2022-08-11T18:37:47.369Z,420.87
2022-08-11T18:40:35.489Z,422.77
2022-08-11T18:43:27.486Z,416.47
2022-08-11T18:46:18.641Z,409.40
2022-08-11T18:49:15.430Z,402.67
2022-08-11T18:52:06.134Z,392.83
2022-08-11T18:54:54.144Z,385.47
2022-08-11T18:57:49.861Z,377.47
2022-08-11T19:00:41.793Z,381.97
2022-08-11T19:03:29.273Z,381.97
2022-08-11T19:06:39.134Z,382.17
2022-08-11T19:09:29.855Z,374.73
2022-08-11T19:12:16.072Z,368.00
2022-08-11T19:15:02.683Z,367.07
2022-08-11T19:17:49.969Z,365.53
2022-08-11T19:20:36.895Z,356.67
2022-08-11T19:23:25.856Z,357.83
2022-08-11T19:26:13.710Z,352.87
2022-08-11T19:29:05.228Z,353.63
2022-08-11T19:31:51.947Z,356.20
2022-08-11T19:34:40.670Z,342.47
2022-08-11T19:37:27.855Z,343.13
2022-08-11T19:40:17.316Z,341.13
2022-08-11T19:43:16.828Z,347.90
2022-08-11T19:46:11.502Z,339.63
2022-08-11T19:48:57.716Z,337.37
2022-08-11T19:51:43.987Z,330.50
2022-08-11T19:54:30.196Z,336.57
2022-08-11T19:57:16.066Z,330.23
2022-08-11T20:00:03.414Z,328.20
2022-08-11T20:02:49.925Z,322.50
2022-08-11T20:05:36.401Z,332.50
2022-08-11T20:08:23.573Z,330.60
2022-08-11T20:11:09.738Z,333.83
2022-08-11T20:13:57.603Z,347.43
2022-08-11T20:16:45.794Z,340.43
2022-08-11T20:19:55.319Z,330.13
2022-08-11T20:22:39.123Z,337.77
2022-08-11T20:25:25.823Z,334.47
2022-08-11T20:28:12.917Z,328.77
2022-08-11T20:30:59.712Z,329.87
2022-08-11T20:33:47.260Z,324.10
2022-08-11T20:36:34.316Z,320.47
2022-08-11T20:39:21.081Z,327.50
2022-08-11T20:42:07.926Z,325.17
2022-08-11T20:44:56.191Z,322.40
2022-08-11T20:47:58.839Z,330.30
2022-08-11T20:50:47.949Z,318.53
2022-08-11T20:53:36.112Z,313.13
2022-08-11T20:56:28.795Z,327.70
2022-08-11T20:59:18.374Z,326.13
2022-08-11T21:02:10.110Z,313.73
2022-08-11T21:04:57.616Z,316.23
2022-08-11T21:07:55.319Z,317.20
2022-08-11T21:10:46.896Z,316.23
2022-08-11T21:13:34.299Z,316.47
2022-08-11T21:16:26.207Z,309.83
2022-08-11T21:19:16.517Z,308.10
2022-08-11T21:22:03.932Z,308.37
2022-08-11T21:24:52.214Z,320.43
2022-08-11T21:27:39.422Z,305.30
2022-08-11T21:30:26.559Z,303.10
2022-08-11T21:33:14.012Z,307.53
2022-08-11T21:36:00.727Z,309.83
2022-08-11T21:38:47.217Z,301.03
2022-08-11T21:41:34.831Z,316.97
2022-08-11T21:44:20.866Z,304.13
2022-08-11T21:47:07.384Z,308.20
2022-08-11T21:49:53.604Z,306.83
2022-08-11T21:52:39.856Z,300.40
2022-08-11T21:55:27.158Z,282.80
2022-08-11T21:58:15.013Z,291.13
2022-08-11T22:01:01.497Z,294.53
2022-08-11T22:03:50.365Z,294.63
2022-08-11T22:06:36.904Z,281.20
2022-08-11T22:09:23.031Z,294.03
2022-08-11T22:12:35.197Z,290.77
2022-08-11T22:15:16.758Z,286.27
2022-08-11T22:18:02.910Z,291.57
2022-08-11T22:20:48.990Z,287.17
2022-08-11T22:23:37.014Z,294.60
2022-08-11T22:26:24.310Z,299.67
2022-08-11T22:29:10.540Z,303.73
2022-08-11T22:31:58.619Z,304.43
2022-08-11T22:34:52.722Z,297.57
2022-08-11T22:37:39.921Z,296.13
2022-08-11T22:40:27.534Z,293.53
2022-08-11T22:43:13.449Z,293.27
2022-08-11T22:45:59.476Z,295.37
2022-08-11T22:48:48.223Z,293.70
2022-08-11T22:51:35.689Z,287.63
2022-08-11T22:54:22.725Z,280.57
2022-08-11T22:57:08.853Z,282.93
2022-08-11T22:59:55.903Z,290.27
2022-08-11T23:02:41.955Z,290.37
2022-08-11T23:05:29.784Z,284.83
2022-08-11T23:08:15.975Z,284.33
2022-08-11T23:11:02.274Z,282.50
2022-08-11T23:13:49.806Z,291.03
2022-08-11T23:16:36.690Z,290.17
2022-08-11T23:20:11.268Z,289.27
2022-08-11T23:22:49.378Z,280.63
2022-08-11T23:25:35.261Z,288.40
2022-08-11T23:28:21.944Z,278.83
2022-08-11T23:31:09.754Z,293.70
2022-08-11T23:33:56.190Z,276.90
2022-08-11T23:36:47.863Z,286.53
2022-08-11T23:39:35.818Z,281.43
2022-08-11T23:42:22.544Z,293.23
2022-08-11T23:45:13.179Z,278.13
2022-08-11T23:48:00.118Z,279.67
2022-08-11T23:50:46.822Z,278.97
2022-08-11T23:53:32.819Z,269.20
2022-08-11T23:56:21.959Z,269.73
2022-08-11T23:59:09.128Z,276.77
